You are not logged in, Click here to log in
洛杉磯國際機場LAX / KLAX 美國加州大洛杉磯地區
ICAO: KLAX Country: 美國加州大洛杉磯地區
Latitude: 33.9416 Longitude: -118.409
Total Arrivals: 42 Total Departures: 31
Latest Arrival: VX798 (KSEA-KLAX)CHUANYI. Lin Latest Departure: CI5117 (KLAX-RCTP)CHANG SHENG. HSIUNG
Scenery:
METAR : KLAX 080253Z 19004KT 10SM SCT019 SCT041 OVC055 17/13 A3010 RMK AO2 SLP190 T01720128 53009

洛杉磯國際機場LAX